createdAt,value
2023-01-03T15:45:29.298Z,4.93
2023-01-03T15:48:20.915Z,5.85
2023-01-03T15:51:08.366Z,5.40
2023-01-03T15:53:55.560Z,6.03
2023-01-03T15:56:49.197Z,5.70
2023-01-03T15:59:43.172Z,5.53
2023-01-03T16:02:33.041Z,6.00
2023-01-03T16:05:23.145Z,5.07
2023-01-03T16:08:22.082Z,5.65
2023-01-03T16:11:18.302Z,6.60
2023-01-03T16:14:14.422Z,6.40
2023-01-03T16:17:02.241Z,5.78
2023-01-03T16:19:51.351Z,5.25
2023-01-03T16:22:57.377Z,6.90
2023-01-03T16:25:47.921Z,7.15
2023-01-03T16:28:35.328Z,5.68
2023-01-03T16:31:29.134Z,6.47
2023-01-03T16:34:19.470Z,6.90
2023-01-03T16:37:09.996Z,6.50
2023-01-03T16:39:58.397Z,5.95
2023-01-03T16:42:45.903Z,5.80
2023-01-03T16:45:33.208Z,5.65
2023-01-03T16:48:24.359Z,5.38
2023-01-03T16:51:17.837Z,5.20
2023-01-03T16:54:09.269Z,5.20
2023-01-03T16:56:56.756Z,4.72
2023-01-03T16:59:43.930Z,4.25
2023-01-03T17:02:31.553Z,4.82
2023-01-03T17:05:23.064Z,4.70
2023-01-03T17:08:17.693Z,5.40
2023-01-03T17:11:08.780Z,4.72
2023-01-03T17:14:00.713Z,5.13
2023-01-03T17:16:48.884Z,5.45
2023-01-03T17:20:03.411Z,5.70
2023-01-03T17:22:50.945Z,5.88
2023-01-03T17:25:39.834Z,5.63
2023-01-03T17:28:29.910Z,5.80
2023-01-03T17:31:19.624Z,6.22
2023-01-03T17:34:20.932Z,7.40
2023-01-03T17:37:13.810Z,7.57
2023-01-03T17:40:01.604Z,9.05
2023-01-03T17:42:53.307Z,8.43
2023-01-03T17:45:59.459Z,7.68
2023-01-03T17:49:04.253Z,7.32
2023-01-03T17:51:52.726Z,7.53
2023-01-03T17:54:41.869Z,7.60
2023-01-03T17:57:29.688Z,8.10
2023-01-03T18:00:19.308Z,9.52
2023-01-03T18:03:08.251Z,8.25
2023-01-03T18:05:56.100Z,8.27
2023-01-03T18:08:44.320Z,8.27
2023-01-03T18:11:31.960Z,7.70
2023-01-03T18:14:19.349Z,8.48
2023-01-03T18:17:11.705Z,8.15
2023-01-03T18:20:01.510Z,9.40
2023-01-03T18:22:49.912Z,10.27
2023-01-03T18:25:37.235Z,10.15
2023-01-03T18:28:27.094Z,10.70
2023-01-03T18:31:16.881Z,10.75
2023-01-03T18:34:05.043Z,14.32
2023-01-03T18:36:54.051Z,18.00
2023-01-03T18:39:41.343Z,21.75
2023-01-03T18:42:46.394Z,29.13
2023-01-03T18:45:34.226Z,48.67
2023-01-03T18:48:23.210Z,43.58
2023-01-03T18:51:15.905Z,33.08
2023-01-03T18:54:04.819Z,30.55
2023-01-03T18:56:51.937Z,28.83
2023-01-03T18:59:39.355Z,31.90
2023-01-03T19:02:28.688Z,26.92
2023-01-03T19:05:16.593Z,24.38
2023-01-03T19:08:04.120Z,25.15
2023-01-03T19:10:53.559Z,25.25
2023-01-03T19:13:51.875Z,24.52
2023-01-03T19:16:39.862Z,24.65
2023-01-03T19:19:27.350Z,23.58
2023-01-03T19:22:23.805Z,22.48
2023-01-03T19:25:21.037Z,23.98
2023-01-03T19:28:12.671Z,23.75
2023-01-03T19:30:59.673Z,21.92
2023-01-03T19:33:46.705Z,17.90
2023-01-03T19:36:34.054Z,20.83
2023-01-03T19:39:25.639Z,20.08
2023-01-03T19:42:33.368Z,22.35
2023-01-03T19:45:27.507Z,16.85
2023-01-03T19:48:18.298Z,18.77
2023-01-03T19:51:06.836Z,15.85
2023-01-03T19:53:53.887Z,20.27
2023-01-03T19:56:41.388Z,18.48
2023-01-03T19:59:30.526Z,18.70
2023-01-03T20:02:34.487Z,18.27
2023-01-03T20:05:24.827Z,17.05
2023-01-03T20:08:12.877Z,16.63
2023-01-03T20:11:00.411Z,18.92
2023-01-03T20:13:48.595Z,19.02
2023-01-03T20:16:35.876Z,21.52
2023-01-03T20:19:25.051Z,23.85
2023-01-03T20:22:37.244Z,21.40
2023-01-03T20:25:26.289Z,20.80
2023-01-03T20:28:18.088Z,26.88
2023-01-03T20:31:05.607Z,23.67
2023-01-03T20:33:53.190Z,21.63
2023-01-03T20:36:44.463Z,24.98
2023-01-03T20:39:35.057Z,22.45
2023-01-03T20:42:23.120Z,20.33
2023-01-03T20:45:12.004Z,20.27
2023-01-03T20:48:00.219Z,20.10
2023-01-03T20:50:47.882Z,22.02
2023-01-03T20:53:39.809Z,21.58
2023-01-03T20:56:32.864Z,23.58
2023-01-03T20:59:21.793Z,24.45
2023-01-03T21:02:10.896Z,22.77
2023-01-03T21:04:58.545Z,22.45
2023-01-03T21:08:03.946Z,22.63
2023-01-03T21:10:53.748Z,21.73
2023-01-03T21:13:42.180Z,24.55
2023-01-03T21:16:32.322Z,20.92
2023-01-03T21:19:21.451Z,27.85
2023-01-03T21:22:18.448Z,39.00
2023-01-03T21:25:07.273Z,37.53
2023-01-03T21:27:55.931Z,34.35
2023-01-03T21:30:44.006Z,31.35
2023-01-03T21:33:31.211Z,27.38
2023-01-03T21:36:24.187Z,24.83
2023-01-03T21:39:12.202Z,30.80
2023-01-03T21:42:16.977Z,26.50
2023-01-03T21:45:07.844Z,24.58
2023-01-03T21:47:55.470Z,23.95
2023-01-03T21:50:44.556Z,30.23
2023-01-03T21:53:31.738Z,31.50
2023-01-03T21:56:21.126Z,32.00
2023-01-03T21:59:08.597Z,30.48
2023-01-03T22:02:15.270Z,32.67
2023-01-03T22:05:02.754Z,28.27
2023-01-03T22:07:50.115Z,25.00
2023-01-03T22:10:37.813Z,22.52
2023-01-03T22:13:25.423Z,25.75
2023-01-03T22:16:12.860Z,24.83
2023-01-03T22:19:01.520Z,25.23
2023-01-03T22:21:48.887Z,24.33
2023-01-03T22:24:36.292Z,23.75
2023-01-03T22:27:23.839Z,28.88
2023-01-03T22:30:14.142Z,31.92
2023-01-03T22:33:01.529Z,26.05
2023-01-03T22:35:50.065Z,25.75
2023-01-03T22:38:38.022Z,24.83
2023-01-03T22:41:25.385Z,26.45
2023-01-03T22:44:15.484Z,25.80
2023-01-03T22:47:03.093Z,29.58
2023-01-03T22:49:50.044Z,25.80
2023-01-03T22:52:40.078Z,24.40
2023-01-03T22:55:32.010Z,26.17
2023-01-03T22:58:19.390Z,22.10
2023-01-03T23:01:07.624Z,25.20
2023-01-03T23:03:56.591Z,31.27
2023-01-03T23:06:43.909Z,28.77
2023-01-03T23:09:32.601Z,32.50
2023-01-03T23:12:37.413Z,31.20
2023-01-03T23:15:24.678Z,29.35
2023-01-03T23:18:11.967Z,34.30
2023-01-03T23:21:05.312Z,29.75
2023-01-03T23:23:52.703Z,39.03
2023-01-03T23:26:41.086Z,50.13
2023-01-03T23:29:28.416Z,53.05
2023-01-03T23:32:16.064Z,45.00
2023-01-03T23:35:03.681Z,45.58
2023-01-03T23:37:50.697Z,40.22
2023-01-03T23:40:40.588Z,40.40
2023-01-03T23:43:29.895Z,44.83
2023-01-03T23:46:18.750Z,44.08
2023-01-03T23:49:06.484Z,47.42
2023-01-03T23:51:53.675Z,43.20
2023-01-03T23:54:40.790Z,40.83
2023-01-03T23:57:28.079Z,39.40
